createdAt,value
2018-04-19T00:01:49.447Z,15.52
2018-04-19T00:04:15.225Z,15.56
2018-04-19T00:06:41.017Z,15.57
2018-04-19T00:09:06.843Z,15.40
2018-04-19T00:11:32.643Z,15.27
2018-04-19T00:13:58.422Z,15.20
2018-04-19T00:16:24.244Z,15.48
2018-04-19T00:18:50.037Z,15.45
2018-04-19T00:21:15.842Z,15.47
2018-04-19T00:23:41.621Z,15.53
2018-04-19T00:26:07.423Z,15.44
2018-04-19T00:28:33.249Z,15.56
2018-04-19T00:30:59.021Z,15.55
2018-04-19T00:33:24.814Z,15.44
2018-04-19T00:35:50.648Z,15.46
2018-04-19T00:38:16.430Z,15.52
2018-04-19T00:40:42.267Z,15.47
2018-04-19T00:43:08.062Z,15.40
2018-04-19T00:45:33.834Z,15.32
2018-04-19T00:47:59.641Z,15.43
2018-04-19T00:50:25.426Z,15.34
2018-04-19T00:53:03.912Z,15.57
2018-04-19T00:55:29.701Z,15.56
2018-04-19T00:57:55.482Z,15.42
2018-04-19T01:00:21.588Z,15.28
2018-04-19T01:02:47.378Z,15.29
2018-04-19T01:05:13.165Z,15.08
2018-04-19T01:07:38.964Z,15.16
2018-04-19T01:10:04.855Z,14.90
2018-04-19T01:12:30.638Z,15.01
2018-04-19T01:14:56.450Z,15.18
2018-04-19T01:17:22.239Z,15.08
2018-04-19T01:19:48.022Z,15.15
2018-04-19T01:22:13.840Z,15.07
2018-04-19T01:24:39.649Z,15.11
2018-04-19T01:27:05.435Z,14.99
2018-04-19T01:29:31.225Z,14.97
2018-04-19T01:31:57.013Z,15.02
2018-04-19T01:34:22.797Z,14.96
2018-04-19T01:36:48.614Z,14.89
2018-04-19T01:39:14.418Z,14.78
2018-04-19T01:41:40.296Z,14.74
2018-04-19T01:44:06.098Z,14.62
2018-04-19T01:46:31.879Z,14.48
2018-04-19T01:48:57.662Z,14.41
2018-04-19T01:51:23.457Z,14.47
2018-04-19T01:53:49.261Z,14.46
2018-04-19T01:56:15.039Z,14.73
2018-04-19T01:58:40.833Z,14.56
2018-04-19T02:01:06.614Z,14.54
2018-04-19T02:03:32.398Z,14.67
2018-04-19T02:05:58.206Z,14.67
2018-04-19T02:08:24.014Z,14.53
2018-04-19T02:10:49.805Z,14.49
2018-04-19T02:13:15.621Z,14.44
2018-04-19T02:15:41.402Z,14.41
2018-04-19T02:18:07.182Z,14.49
2018-04-19T02:20:32.983Z,14.25
2018-04-19T02:22:58.772Z,14.13
2018-04-19T02:25:24.553Z,14.18
2018-04-19T02:27:50.333Z,14.39
2018-04-19T02:30:16.129Z,14.33
2018-04-19T02:32:41.914Z,14.24
2018-04-19T02:35:07.732Z,14.27
2018-04-19T02:37:33.525Z,14.39
2018-04-19T02:39:59.325Z,14.38
2018-04-19T02:42:25.254Z,14.39
2018-04-19T02:44:51.036Z,14.26
2018-04-19T02:47:16.828Z,14.22
2018-04-19T02:49:42.634Z,14.12
2018-04-19T02:52:08.419Z,14.12
2018-04-19T02:54:34.209Z,14.10
2018-04-19T02:56:59.997Z,14.25
2018-04-19T02:59:25.804Z,14.14
2018-04-19T03:01:51.616Z,14.12
2018-04-19T03:04:17.432Z,14.32
2018-04-19T03:06:43.273Z,14.28
2018-04-19T03:09:09.065Z,14.36
2018-04-19T03:11:34.844Z,14.36
2018-04-19T03:14:00.867Z,14.19
2018-04-19T03:16:26.644Z,14.20
2018-04-19T03:18:52.430Z,14.19
2018-04-19T03:21:18.229Z,14.11
2018-04-19T03:23:44.006Z,14.54
2018-04-19T03:26:09.797Z,14.54
2018-04-19T03:28:35.605Z,14.35
2018-04-19T03:31:01.394Z,14.40
2018-04-19T03:33:27.191Z,14.22
2018-04-19T03:35:52.984Z,14.04
2018-04-19T03:38:18.757Z,13.76
2018-04-19T03:40:44.558Z,13.64
2018-04-19T03:43:10.353Z,13.64
2018-04-19T03:45:36.163Z,13.48
2018-04-19T03:48:01.950Z,13.36
2018-04-19T03:50:27.740Z,13.30
2018-04-19T03:52:53.555Z,13.33
2018-04-19T03:55:19.329Z,13.43
2018-04-19T03:57:45.120Z,13.50
2018-04-19T04:00:10.890Z,13.36
2018-04-19T04:02:36.744Z,13.28
2018-04-19T04:05:02.557Z,13.26
2018-04-19T04:07:28.346Z,13.17
2018-04-19T04:09:54.126Z,13.16
2018-04-19T04:12:19.931Z,13.20
2018-04-19T04:14:45.714Z,13.17
2018-04-19T04:17:23.689Z,13.26
2018-04-19T04:20:01.949Z,13.04
2018-04-19T04:22:40.309Z,13.02
2018-04-19T04:25:06.133Z,13.14
2018-04-19T04:27:31.901Z,13.20
2018-04-19T04:29:57.706Z,13.16
2018-04-19T04:32:23.637Z,13.26
2018-04-19T04:34:49.437Z,13.15
2018-04-19T04:37:15.217Z,13.14
2018-04-19T04:39:41.007Z,13.17
2018-04-19T04:42:06.792Z,13.19
2018-04-19T04:44:32.902Z,13.40
2018-04-19T04:46:58.715Z,14.80
2018-04-19T04:49:24.513Z,15.19
2018-04-19T04:51:50.320Z,15.18
2018-04-19T04:54:16.097Z,14.70
2018-04-19T04:56:41.914Z,14.11
2018-04-19T04:59:07.740Z,13.71
2018-04-19T05:01:33.546Z,13.76
2018-04-19T05:03:59.368Z,13.65
2018-04-19T05:06:25.581Z,13.56
2018-04-19T05:08:51.393Z,13.59
2018-04-19T05:11:17.179Z,13.41
2018-04-19T05:13:43.035Z,13.53
2018-04-19T05:16:08.815Z,13.47
2018-04-19T05:18:34.614Z,13.46
2018-04-19T05:21:00.473Z,13.47
2018-04-19T05:23:26.255Z,13.52
2018-04-19T05:25:52.039Z,13.55
2018-04-19T05:28:18.033Z,13.63
2018-04-19T05:30:43.849Z,13.61
2018-04-19T05:33:09.632Z,13.66
2018-04-19T05:35:35.528Z,13.67
2018-04-19T05:38:01.310Z,13.83
2018-04-19T05:40:27.102Z,13.95
2018-04-19T05:42:52.889Z,14.08
2018-04-19T05:45:18.688Z,14.43
2018-04-19T05:47:44.486Z,14.49
2018-04-19T05:50:10.266Z,14.71
2018-04-19T05:52:36.055Z,15.01
2018-04-19T05:55:01.888Z,15.21
2018-04-19T05:57:27.686Z,15.27
2018-04-19T05:59:53.465Z,15.22
2018-04-19T06:02:19.421Z,15.27
2018-04-19T06:04:45.205Z,15.51
2018-04-19T06:07:10.969Z,15.52
2018-04-19T06:09:36.803Z,15.38
2018-04-19T06:12:02.585Z,15.63
2018-04-19T06:14:28.365Z,15.65
2018-04-19T06:16:54.173Z,15.86
2018-04-19T06:19:19.970Z,16.06
2018-04-19T06:21:45.785Z,16.11
2018-04-19T06:24:11.648Z,16.32
2018-04-19T06:26:37.510Z,16.18
2018-04-19T06:29:03.375Z,16.13
2018-04-19T06:31:29.162Z,16.68
2018-04-19T06:33:55.018Z,17.07
2018-04-19T06:36:20.998Z,17.11
2018-04-19T06:38:47.055Z,17.26
2018-04-19T06:41:14.343Z,17.37
2018-04-19T06:43:40.799Z,17.43
2018-04-19T06:46:07.479Z,17.30
2018-04-19T06:48:34.260Z,17.33
2018-04-19T06:51:01.361Z,17.46
2018-04-19T06:53:28.117Z,17.57
2018-04-19T06:55:55.610Z,17.53
2018-04-19T06:58:21.598Z,17.81
2018-04-19T07:00:48.173Z,17.84
2018-04-19T07:03:14.552Z,17.98
2018-04-19T07:05:41.043Z,17.93
2018-04-19T07:08:07.626Z,18.06
2018-04-19T07:10:34.085Z,17.84
2018-04-19T07:13:01.586Z,17.91
2018-04-19T07:15:29.580Z,18.08
2018-04-19T07:17:55.938Z,18.09
2018-04-19T07:20:23.405Z,18.21
2018-04-19T07:22:51.448Z,18.36
2018-04-19T07:25:18.428Z,18.14
2018-04-19T07:27:44.856Z,18.13
2018-04-19T07:30:12.216Z,18.10
2018-04-19T07:32:38.389Z,18.32
2018-04-19T07:35:04.843Z,18.49
2018-04-19T07:37:31.235Z,18.61
2018-04-19T07:39:57.701Z,18.61
2018-04-19T07:42:25.539Z,18.64
2018-04-19T07:44:52.012Z,18.84
2018-04-19T07:47:18.577Z,18.92
2018-04-19T07:49:45.406Z,18.95
2018-04-19T07:52:13.033Z,19.09
2018-04-19T07:54:39.537Z,19.12
2018-04-19T07:57:05.936Z,19.11
2018-04-19T07:59:32.651Z,19.30
2018-04-19T08:01:59.627Z,19.27
2018-04-19T08:04:26.796Z,19.47
2018-04-19T08:06:53.821Z,19.52
2018-04-19T08:09:21.109Z,19.73
2018-04-19T08:11:47.590Z,19.71
2018-04-19T08:14:15.807Z,19.84
2018-04-19T08:16:43.187Z,19.79
2018-04-19T08:19:09.549Z,20.00
2018-04-19T08:21:37.087Z,19.99
2018-04-19T08:24:03.606Z,20.15
2018-04-19T08:26:30.196Z,20.15
2018-04-19T08:28:58.529Z,20.25
2018-04-19T08:31:26.807Z,20.43
2018-04-19T08:33:53.366Z,20.45
2018-04-19T08:36:21.363Z,20.60
2018-04-19T08:38:48.931Z,20.75
2018-04-19T08:41:15.305Z,20.86
2018-04-19T08:43:41.677Z,20.93
2018-04-19T08:46:08.923Z,20.90
2018-04-19T08:48:35.655Z,21.04
2018-04-19T08:51:03.064Z,21.30
2018-04-19T08:53:29.604Z,21.36
2018-04-19T08:55:58.838Z,21.37
2018-04-19T08:58:25.252Z,21.52
2018-04-19T09:00:53.018Z,21.62
2018-04-19T09:03:21.844Z,21.60
2018-04-19T09:05:48.441Z,21.61
2018-04-19T09:08:14.982Z,21.76
2018-04-19T09:10:43.167Z,21.82
2018-04-19T09:13:10.387Z,22.02
2018-04-19T09:15:37.624Z,22.17
2018-04-19T09:18:04.768Z,22.28
2018-04-19T09:20:32.257Z,22.27
2018-04-19T09:22:58.566Z,22.42
2018-04-19T09:25:27.004Z,22.59
2018-04-19T09:27:53.583Z,22.71
2018-04-19T09:30:20.625Z,22.75
2018-04-19T09:32:47.151Z,22.71
2018-04-19T09:35:13.949Z,22.74
2018-04-19T09:37:40.503Z,22.84
2018-04-19T09:40:06.702Z,23.05
2018-04-19T09:42:34.203Z,23.14
2018-04-19T09:45:00.770Z,23.19
2018-04-19T09:47:27.812Z,23.22
2018-04-19T09:49:54.462Z,23.37
2018-04-19T09:52:21.972Z,23.26
2018-04-19T09:54:51.558Z,23.22
2018-04-19T09:57:18.132Z,23.09
2018-04-19T09:59:44.743Z,23.18
2018-04-19T10:02:11.047Z,23.32
2018-04-19T10:04:38.497Z,23.38
2018-04-19T10:07:04.578Z,23.54
2018-04-19T10:09:31.067Z,23.58
2018-04-19T10:11:57.697Z,23.74
2018-04-19T10:14:25.149Z,23.81
2018-04-19T10:16:52.112Z,23.82
2018-04-19T10:19:18.732Z,23.84
2018-04-19T10:21:45.158Z,23.83
2018-04-19T10:24:12.570Z,23.86
2018-04-19T10:26:42.291Z,23.86
2018-04-19T10:29:08.880Z,24.29
2018-04-19T10:31:35.252Z,24.33
2018-04-19T10:34:02.506Z,24.26
2018-04-19T10:36:30.317Z,24.19
2018-04-19T10:38:56.134Z,24.22
2018-04-19T10:41:22.745Z,24.57
2018-04-19T10:43:48.563Z,24.67
2018-04-19T10:46:14.367Z,24.59
2018-04-19T10:48:40.168Z,24.77
2018-04-19T10:51:06.176Z,24.83
2018-04-19T10:53:31.963Z,24.75
2018-04-19T10:55:57.758Z,24.97
2018-04-19T10:58:23.545Z,24.90
2018-04-19T11:00:49.649Z,25.10
2018-04-19T11:03:15.457Z,25.09
2018-04-19T11:05:41.254Z,25.02
2018-04-19T11:08:07.053Z,25.11
2018-04-19T11:10:32.848Z,25.07
2018-04-19T11:12:58.630Z,25.09
2018-04-19T11:15:24.428Z,25.20
2018-04-19T11:17:50.205Z,25.29
2018-04-19T11:20:16.010Z,25.17
2018-04-19T11:22:41.832Z,25.31
2018-04-19T11:25:07.617Z,25.30
2018-04-19T11:27:33.418Z,25.27
2018-04-19T11:29:59.271Z,25.29
2018-04-19T11:32:25.086Z,25.34
2018-04-19T11:34:50.877Z,25.22
2018-04-19T11:37:16.817Z,25.20
2018-04-19T11:39:42.596Z,25.29
2018-04-19T11:42:08.378Z,25.26
2018-04-19T11:44:34.161Z,25.21
2018-04-19T11:46:59.948Z,25.33
2018-04-19T11:49:25.731Z,25.15
2018-04-19T11:51:51.520Z,25.37
2018-04-19T11:54:17.330Z,25.41
2018-04-19T11:56:43.138Z,25.48
2018-04-19T11:59:08.916Z,25.60
2018-04-19T12:01:34.793Z,25.54
2018-04-19T12:04:00.576Z,25.49
2018-04-19T12:06:26.390Z,25.64
2018-04-19T12:08:52.194Z,25.85
2018-04-19T12:11:17.973Z,25.85
2018-04-19T12:13:43.805Z,26.25
2018-04-19T12:16:09.754Z,26.51
2018-04-19T12:18:35.530Z,26.49
2018-04-19T12:21:01.340Z,26.75
2018-04-19T12:23:27.154Z,26.85
2018-04-19T12:25:52.940Z,27.17
2018-04-19T12:28:18.718Z,27.13
2018-04-19T12:30:44.512Z,27.30
2018-04-19T12:33:10.405Z,27.32
2018-04-19T12:35:36.188Z,27.82
2018-04-19T12:38:02.002Z,28.10
2018-04-19T12:40:27.814Z,27.71
2018-04-19T12:42:53.607Z,27.85
2018-04-19T12:45:19.376Z,28.56
2018-04-19T12:47:45.194Z,29.03
2018-04-19T12:50:10.978Z,28.52
2018-04-19T12:52:36.793Z,28.12
2018-04-19T12:55:02.634Z,28.48
2018-04-19T12:57:28.431Z,28.75
2018-04-19T12:59:54.226Z,28.66
2018-04-19T13:02:20.022Z,28.95
2018-04-19T13:04:45.838Z,28.81
2018-04-19T13:07:11.643Z,29.24
2018-04-19T13:09:37.445Z,28.78
2018-04-19T13:12:03.243Z,28.95
2018-04-19T13:14:29.034Z,28.52
2018-04-19T13:16:54.832Z,28.63
2018-04-19T13:19:20.644Z,28.14
2018-04-19T13:21:46.452Z,28.28
2018-04-19T13:24:12.228Z,28.85
2018-04-19T13:26:38.021Z,29.41
2018-04-19T13:29:03.796Z,29.33
2018-04-19T13:31:29.573Z,30.08
2018-04-19T13:33:55.358Z,29.81
2018-04-19T13:36:21.201Z,30.11
2018-04-19T13:38:47.148Z,30.24
2018-04-19T13:41:12.957Z,30.56
2018-04-19T13:43:38.742Z,30.82
2018-04-19T13:46:04.651Z,30.69
2018-04-19T13:48:30.509Z,30.60
2018-04-19T13:50:56.294Z,30.45
2018-04-19T13:53:22.092Z,30.49
2018-04-19T13:55:47.869Z,30.52
2018-04-19T13:58:13.645Z,31.13
2018-04-19T14:00:39.479Z,31.06
2018-04-19T14:03:05.264Z,31.03
2018-04-19T14:05:31.062Z,31.18
2018-04-19T14:07:59.548Z,30.39
2018-04-19T14:10:25.354Z,30.30
2018-04-19T14:12:51.158Z,30.03
2018-04-19T14:15:16.938Z,30.56
2018-04-19T14:17:42.715Z,30.34
2018-04-19T14:20:08.548Z,30.51
2018-04-19T14:22:34.325Z,30.20
2018-04-19T14:25:00.112Z,30.18
2018-04-19T14:27:25.897Z,29.50
2018-04-19T14:29:51.683Z,29.87
2018-04-19T14:32:17.487Z,30.01
2018-04-19T14:34:43.284Z,29.97
2018-04-19T14:37:09.472Z,29.63
2018-04-19T14:39:35.290Z,29.73
2018-04-19T14:42:01.073Z,29.67
2018-04-19T14:44:26.855Z,30.11
2018-04-19T14:46:52.678Z,29.32
2018-04-19T14:49:18.693Z,29.80
2018-04-19T14:51:44.465Z,29.77
2018-04-19T14:54:10.369Z,29.12
2018-04-19T14:56:36.152Z,29.73
2018-04-19T14:59:01.936Z,29.06
2018-04-19T15:01:27.741Z,28.77
2018-04-19T15:03:53.529Z,28.59
2018-04-19T15:06:19.297Z,28.76
2018-04-19T15:08:45.116Z,28.52
2018-04-19T15:11:10.921Z,28.56
2018-04-19T15:13:36.703Z,28.96
2018-04-19T15:16:02.520Z,28.96
2018-04-19T15:18:28.307Z,29.05
2018-04-19T15:20:54.087Z,28.89
2018-04-19T15:23:19.889Z,28.94
2018-04-19T15:25:45.678Z,28.66
2018-04-19T15:28:11.485Z,28.83
2018-04-19T15:30:37.284Z,28.73
2018-04-19T15:33:03.066Z,28.61
2018-04-19T15:35:28.882Z,28.56
2018-04-19T15:37:54.667Z,28.56
2018-04-19T15:40:20.460Z,28.58
2018-04-19T15:42:46.261Z,28.45
2018-04-19T15:45:12.035Z,28.48
2018-04-19T15:47:37.817Z,28.11
2018-04-19T15:50:03.703Z,28.29
2018-04-19T15:52:29.445Z,28.25
2018-04-19T15:54:55.221Z,28.44
2018-04-19T15:57:21.020Z,28.42
2018-04-19T15:59:46.818Z,28.06
2018-04-19T16:02:12.602Z,27.65
2018-04-19T16:04:38.413Z,27.48
2018-04-19T16:07:04.191Z,27.64
2018-04-19T16:09:29.982Z,27.78
2018-04-19T16:11:55.786Z,28.24
2018-04-19T16:14:21.780Z,28.28
2018-04-19T16:16:47.629Z,27.91
2018-04-19T16:19:13.446Z,27.25
2018-04-19T16:21:39.225Z,27.48
2018-04-19T16:24:05.025Z,27.44
2018-04-19T16:26:30.834Z,27.22
2018-04-19T16:28:56.706Z,27.05
2018-04-19T16:31:22.421Z,26.67
2018-04-19T16:33:48.312Z,26.57
2018-04-19T16:36:14.109Z,26.65
2018-04-19T16:38:39.913Z,26.63
2018-04-19T16:41:05.769Z,26.71
2018-04-19T16:43:31.510Z,26.72
2018-04-19T16:45:57.312Z,26.58
2018-04-19T16:48:23.128Z,26.59
2018-04-19T16:50:48.934Z,26.50
2018-04-19T16:53:14.711Z,26.25
2018-04-19T16:55:40.547Z,26.23
2018-04-19T16:58:06.314Z,26.01
2018-04-19T17:00:32.125Z,26.12
2018-04-19T17:02:57.909Z,26.13
2018-04-19T17:05:23.704Z,26.02
2018-04-19T17:07:49.548Z,25.84
2018-04-19T17:10:15.333Z,25.84
2018-04-19T17:12:41.121Z,25.71
2018-04-19T17:15:06.914Z,25.65
2018-04-19T17:17:32.732Z,25.54
2018-04-19T17:19:58.526Z,25.49
2018-04-19T17:22:24.325Z,25.41
2018-04-19T17:24:50.110Z,25.35
2018-04-19T17:27:15.905Z,25.29
2018-04-19T17:29:41.770Z,25.19
2018-04-19T17:32:07.541Z,25.17
2018-04-19T17:34:33.361Z,25.07
2018-04-19T17:36:59.105Z,24.98
2018-04-19T17:39:24.902Z,24.91
2018-04-19T17:41:50.689Z,24.86
2018-04-19T17:44:16.834Z,24.86
2018-04-19T17:46:42.629Z,24.84
2018-04-19T17:49:08.450Z,24.79
2018-04-19T17:51:34.264Z,24.75
2018-04-19T17:54:00.065Z,24.62
2018-04-19T17:56:25.843Z,24.61
2018-04-19T17:58:51.653Z,24.55
2018-04-19T18:01:17.466Z,24.51
2018-04-19T18:03:43.257Z,24.43
2018-04-19T18:06:09.087Z,24.37
2018-04-19T18:08:34.896Z,24.30
2018-04-19T18:11:00.694Z,24.20
2018-04-19T18:13:26.506Z,24.17
2018-04-19T18:15:52.323Z,24.08
2018-04-19T18:18:18.123Z,24.01
2018-04-19T18:20:43.929Z,23.97
2018-04-19T18:23:09.709Z,23.88
2018-04-19T18:25:35.505Z,23.83
2018-04-19T18:28:01.293Z,23.79
2018-04-19T18:30:27.090Z,23.73
2018-04-19T18:32:52.901Z,23.65
2018-04-19T18:35:19.028Z,23.57
2018-04-19T18:37:45.074Z,23.49
2018-04-19T18:40:11.476Z,23.46
2018-04-19T18:42:37.801Z,23.37
2018-04-19T18:45:04.672Z,23.36
2018-04-19T18:47:31.147Z,23.20
2018-04-19T18:49:58.843Z,23.13
2018-04-19T18:52:25.714Z,23.11
2018-04-19T18:54:52.539Z,23.04
2018-04-19T18:57:20.813Z,22.99
2018-04-19T18:59:47.952Z,22.91
2018-04-19T19:02:14.393Z,22.86
2018-04-19T19:04:43.267Z,22.82
2018-04-19T19:07:10.118Z,22.76
2018-04-19T19:09:44.640Z,22.71
2018-04-19T19:12:11.483Z,22.66
2018-04-19T19:14:38.531Z,22.62
2018-04-19T19:17:17.557Z,22.62
2018-04-19T19:19:57.389Z,22.48
2018-04-19T19:22:24.047Z,22.43
2018-04-19T19:24:51.299Z,22.39
2018-04-19T19:27:17.932Z,22.36
2018-04-19T19:29:44.697Z,22.35
2018-04-19T19:32:11.040Z,22.33
2018-04-19T19:34:37.844Z,22.21
2018-04-19T19:37:05.917Z,22.11
2018-04-19T19:39:32.946Z,22.00
2018-04-19T19:41:59.577Z,22.03
2018-04-19T19:44:27.907Z,22.00
2018-04-19T19:46:54.617Z,21.94
2018-04-19T19:49:21.358Z,21.79
2018-04-19T19:51:48.520Z,21.86
2018-04-19T19:54:15.860Z,21.88
2018-04-19T19:56:42.705Z,21.74
2018-04-19T19:59:09.648Z,21.70
2018-04-19T20:01:36.695Z,21.64
2018-04-19T20:04:03.131Z,21.58
2018-04-19T20:06:29.977Z,21.54
2018-04-19T20:08:56.669Z,21.45
2018-04-19T20:11:24.372Z,21.33
2018-04-19T20:13:51.933Z,21.27
2018-04-19T20:16:18.810Z,21.25
2018-04-19T20:18:45.825Z,21.17
2018-04-19T20:21:12.253Z,21.02
2018-04-19T20:23:38.788Z,21.00
2018-04-19T20:26:07.134Z,20.98
2018-04-19T20:28:34.156Z,20.99
2018-04-19T20:31:00.681Z,20.93
2018-04-19T20:33:27.491Z,20.74
2018-04-19T20:35:54.030Z,20.68
2018-04-19T20:38:21.075Z,20.67
2018-04-19T20:40:47.299Z,20.64
2018-04-19T20:43:13.937Z,20.58
2018-04-19T20:45:40.474Z,20.51
2018-04-19T20:48:06.318Z,20.50
2018-04-19T20:50:32.153Z,20.45
2018-04-19T20:52:57.952Z,20.48
2018-04-19T20:55:23.742Z,20.42
2018-04-19T20:57:49.549Z,20.36
2018-04-19T21:00:15.361Z,20.24
2018-04-19T21:02:41.157Z,20.21
2018-04-19T21:05:07.773Z,20.15
2018-04-19T21:07:33.590Z,20.13
2018-04-19T21:09:59.408Z,20.05
2018-04-19T21:12:25.221Z,20.02
2018-04-19T21:14:51.057Z,19.92
2018-04-19T21:17:16.860Z,19.89
2018-04-19T21:19:42.678Z,19.89
2018-04-19T21:22:09.386Z,19.82
2018-04-19T21:24:35.282Z,19.77
2018-04-19T21:27:01.070Z,19.70
2018-04-19T21:29:26.921Z,19.64
2018-04-19T21:31:52.755Z,19.59
2018-04-19T21:34:18.541Z,19.58
2018-04-19T21:36:44.365Z,19.58
2018-04-19T21:39:10.154Z,19.61
2018-04-19T21:41:35.946Z,19.41
2018-04-19T21:44:01.732Z,19.47
2018-04-19T21:46:27.557Z,19.47
2018-04-19T21:48:53.328Z,19.43
2018-04-19T21:51:19.097Z,19.28
2018-04-19T21:53:44.901Z,19.43
2018-04-19T21:56:10.693Z,19.36
2018-04-19T21:58:36.492Z,19.28
2018-04-19T22:01:02.305Z,19.26
2018-04-19T22:03:28.100Z,19.34
2018-04-19T22:05:53.899Z,19.33
2018-04-19T22:08:19.678Z,19.23
2018-04-19T22:10:45.474Z,19.20
2018-04-19T22:13:11.249Z,19.17
2018-04-19T22:15:37.041Z,19.09
2018-04-19T22:18:02.886Z,19.05
2018-04-19T22:20:28.683Z,19.10
2018-04-19T22:22:54.465Z,19.09
2018-04-19T22:25:20.237Z,19.12
2018-04-19T22:27:46.047Z,19.07
2018-04-19T22:30:11.825Z,18.98
2018-04-19T22:32:37.654Z,18.88
2018-04-19T22:35:03.429Z,18.95
2018-04-19T22:37:29.201Z,19.01
2018-04-19T22:39:54.998Z,19.08
2018-04-19T22:42:20.789Z,19.05
2018-04-19T22:44:46.609Z,19.08
2018-04-19T22:47:12.410Z,19.09
2018-04-19T22:49:38.192Z,19.06
2018-04-19T22:52:04.000Z,19.03
2018-04-19T22:54:29.805Z,18.90
2018-04-19T22:56:55.602Z,18.82
2018-04-19T22:59:21.413Z,18.81
2018-04-19T23:01:47.200Z,18.83
2018-04-19T23:04:12.988Z,18.79
2018-04-19T23:06:38.765Z,18.75
2018-04-19T23:09:04.559Z,18.74
2018-04-19T23:11:30.333Z,18.63
2018-04-19T23:13:56.125Z,18.63
2018-04-19T23:16:21.909Z,18.75
2018-04-19T23:18:47.706Z,18.56
2018-04-19T23:21:13.512Z,18.47
2018-04-19T23:23:39.290Z,18.43
2018-04-19T23:26:05.075Z,18.48
2018-04-19T23:28:30.872Z,18.45
2018-04-19T23:30:56.641Z,18.41
2018-04-19T23:33:22.409Z,18.34
2018-04-19T23:35:48.192Z,18.26
2018-04-19T23:38:13.988Z,18.23
2018-04-19T23:40:39.804Z,18.16
2018-04-19T23:43:05.577Z,18.05
2018-04-19T23:45:31.362Z,18.06
2018-04-19T23:47:57.177Z,18.04
2018-04-19T23:50:22.956Z,18.03
2018-04-19T23:52:48.748Z,18.18
2018-04-19T23:55:14.557Z,18.31
2018-04-19T23:57:40.330Z,18.26
